Time;durP1;ratioP1;P1;durP2;ratioP2;P2;SDS_P1;SDS_P2;PMS_P1;PMS_P2;Temp;Humidity;BMP_temperature;BMP_pressure;BME280_temperature;BME280_humidity;BME280_pressure;Samples;Min_cycle;Max_cycle;Signal;HPM_P1;HPM_P2
2022/06/24 00:02:12;;;;;;;4.10;1.50;;;;;;;23.41;79.89;98940.72;4906319;29;20043;-89
2022/06/24 00:04:38;;;;;;;2.53;1.50;;;;;;;23.31;80.17;98935.91;4935256;29;20027;-90
2022/06/24 00:07:12;;;;;;;2.53;1.48;;;;;;;23.20;80.28;98937.63;4911247;29;20758;-89
2022/06/24 00:09:39;;;;;;;2.83;1.25;;;;;;;23.16;80.24;98930.13;4903214;29;20383;-89
2022/06/24 00:12:05;;;;;;;2.40;1.42;;;;;;;23.17;80.80;98945.44;4909990;29;20036;-89
2022/06/24 00:14:31;;;;;;;3.00;1.40;;;;;;;23.08;79.00;98950.47;4908403;29;20273;-90
2022/06/24 00:17:05;;;;;;;1.67;1.27;;;;;;;23.09;80.40;98941.19;4900973;29;20112;-89
2022/06/24 00:19:34;;;;;;;3.28;1.40;;;;;;;23.07;80.67;98940.63;4913136;29;20024;-90
2022/06/24 00:22:08;;;;;;;2.75;1.50;;;;;;;23.02;80.16;98932.34;4903095;29;20490;-88
2022/06/24 00:24:35;;;;;;;3.83;1.80;;;;;;;22.92;79.42;98922.06;4908559;29;20043;-88
2022/06/24 00:27:01;;;;;;;3.85;2.08;;;;;;;22.84;79.15;98917.00;4900571;29;20075;-89
2022/06/24 00:29:29;;;;;;;3.63;1.83;;;;;;;22.89;78.99;98927.19;4903010;29;20047;-89
2022/06/24 00:32:10;;;;;;;3.03;1.80;;;;;;;22.89;78.87;98930.75;4902634;29;20122;-89
2022/06/24 00:34:39;;;;;;;3.38;1.88;;;;;;;22.88;78.86;98928.25;4917492;29;20169;-88
2022/06/24 00:37:22;;;;;;;4.28;2.20;;;;;;;22.85;78.96;98947.84;4902425;29;20564;-89
2022/06/24 00:39:48;;;;;;;3.60;1.90;;;;;;;22.81;78.95;98954.84;4912715;29;20056;-89
2022/06/24 00:42:13;;;;;;;3.15;2.08;;;;;;;22.85;78.93;98943.22;4908920;29;20478;-89
2022/06/24 00:44:47;;;;;;;3.22;2.15;;;;;;;22.82;78.93;98943.69;4918391;29;20032;-89
2022/06/24 00:47:14;;;;;;;4.25;2.47;;;;;;;22.86;79.25;98952.22;4901630;29;20059;-89
2022/06/24 00:49:40;;;;;;;2.22;1.98;;;;;;;22.85;79.32;98962.28;4902511;29;20042;-89
2022/06/24 00:52:07;;;;;;;6.03;2.03;;;;;;;22.86;79.55;98968.56;4909354;29;20027;-87
2022/06/24 00:54:33;;;;;;;4.15;2.42;;;;;;;22.86;79.65;98974.03;4909815;29;20086;-87
2022/06/24 00:56:58;;;;;;;2.95;2.20;;;;;;;22.89;79.26;98959.91;4902279;29;20419;-87
2022/06/24 00:59:23;;;;;;;3.63;2.40;;;;;;;22.84;78.85;98948.91;4911200;29;20030;-87
2022/06/24 01:01:50;;;;;;;3.40;2.60;;;;;;;22.82;79.35;98942.88;4907975;29;20032;-87
2022/06/24 01:04:15;;;;;;;3.38;2.58;;;;;;;22.94;79.39;98949.09;4902038;29;20027;-87
2022/06/24 01:06:43;;;;;;;3.50;2.55;;;;;;;22.90;79.46;98967.84;4900212;29;20034;-87
2022/06/24 01:09:09;;;;;;;4.53;2.72;;;;;;;22.85;79.57;98956.84;4917545;29;20114;-86
2022/06/24 01:11:35;;;;;;;3.45;2.63;;;;;;;22.89;79.06;98955.28;4899361;29;20115;-87
2022/06/24 01:14:00;;;;;;;3.65;2.30;;;;;;;22.82;80.00;98973.69;4925656;29;20031;-87
2022/06/24 01:16:26;;;;;;;4.47;2.65;;;;;;;22.81;79.36;98987.56;4901638;29;20028;-87
2022/06/24 01:18:53;;;;;;;2.60;2.22;;;;;;;22.81;79.48;98982.09;4901942;29;20047;-87
2022/06/24 01:21:37;;;;;;;2.30;2.10;;;;;;;22.78;80.11;98979.84;4901061;29;20043;-88
2022/06/24 01:24:04;;;;;;;2.63;2.03;;;;;;;22.78;79.96;98988.84;4925743;29;20038;-87
2022/06/24 01:26:30;;;;;;;3.25;2.50;;;;;;;22.75;80.27;98991.22;4912499;29;20038;-87
2022/06/24 01:28:55;;;;;;;3.75;2.65;;;;;;;22.77;80.02;98994.53;4917722;29;20032;-87
2022/06/24 01:31:20;;;;;;;4.25;2.40;;;;;;;22.69;80.66;99000.34;4917575;29;20027;-87
2022/06/24 01:33:46;;;;;;;2.72;2.20;;;;;;;22.71;80.84;99006.41;4925264;29;20044;-87
2022/06/24 01:36:14;;;;;;;2.00;1.70;;;;;;;22.69;79.93;98994.88;4901917;29;20871;-87
2022/06/24 01:38:39;;;;;;;3.35;1.70;;;;;;;22.67;80.89;98995.13;4909479;29;20474;-87
2022/06/24 01:41:05;;;;;;;2.17;1.45;;;;;;;22.64;80.90;98992.88;4899026;29;20086;-87
2022/06/24 01:43:30;;;;;;;3.00;1.63;;;;;;;22.60;80.35;98980.78;4910419;29;20075;-89
2022/06/24 01:45:56;;;;;;;1.75;1.45;;;;;;;22.54;79.60;98979.88;4916513;29;20032;-88
2022/06/24 01:48:21;;;;;;;2.25;1.70;;;;;;;22.48;79.83;98963.66;4908498;29;20062;-89
2022/06/24 01:50:46;;;;;;;1.95;1.45;;;;;;;22.54;79.20;98962.69;4919564;29;20039;-89
2022/06/24 01:53:12;;;;;;;2.10;1.40;;;;;;;22.51;78.80;98961.25;4900450;29;20019;-89
2022/06/24 01:55:37;;;;;;;3.00;1.48;;;;;;;22.50;79.70;98961.50;4907589;29;20405;-89
2022/06/24 01:58:02;;;;;;;2.05;1.40;;;;;;;22.46;79.14;98955.72;4911914;29;20035;-89
2022/06/24 02:00:28;;;;;;;1.70;1.38;;;;;;;22.51;79.32;98955.00;4926334;29;20024;-89
2022/06/24 02:02:54;;;;;;;1.75;1.40;;;;;;;22.48;79.60;98950.84;4900524;29;20031;-89
2022/06/24 02:05:19;;;;;;;1.50;1.30;;;;;;;22.50;79.57;98942.44;4900054;29;20039;-89
2022/06/24 02:07:45;;;;;;;2.63;1.60;;;;;;;22.44;79.61;98941.50;4915135;29;20390;-89
2022/06/24 02:15:38;;;;;;;2.97;1.60;;;;;;;22.42;79.58;98964.59;4917049;29;20054;-88
2022/06/24 02:18:03;;;;;;;3.05;1.50;;;;;;;22.42;78.95;98959.16;4900966;29;20531;-89
2022/06/24 02:20:29;;;;;;;1.60;1.50;;;;;;;22.38;79.80;98952.53;4908143;29;20471;-89
2022/06/24 02:22:54;;;;;;;3.33;1.80;;;;;;;22.35;79.68;98945.66;4897731;29;20038;-89
2022/06/24 02:25:19;;;;;;;2.58;1.60;;;;;;;22.36;81.15;98938.31;4916882;29;20054;-89
2022/06/24 02:27:46;;;;;;;1.70;1.55;;;;;;;22.38;80.45;98928.84;4908092;29;20036;-89
2022/06/24 02:30:11;;;;;;;1.95;1.70;;;;;;;22.42;80.76;98924.56;4900642;29;20039;-89
2022/06/24 02:32:37;;;;;;;4.20;1.63;;;;;;;22.38;80.13;98917.09;4900440;29;20131;-89
2022/06/24 02:35:02;;;;;;;2.95;1.60;;;;;;;22.39;80.27;98913.31;4911973;29;20415;-89
2022/06/24 02:37:28;;;;;;;3.45;1.77;;;;;;;22.34;80.33;98902.31;4907137;29;20024;-89
2022/06/24 02:39:53;;;;;;;2.47;1.60;;;;;;;22.33;80.66;98895.19;4907056;29;20047;-88
2022/06/24 02:42:18;;;;;;;3.15;1.80;;;;;;;22.33;81.15;98887.84;4917214;29;20031;-89
2022/06/24 02:44:44;;;;;;;3.72;1.80;;;;;;;22.31;81.57;98879.09;4916049;29;20115;-89
2022/06/24 02:47:09;;;;;;;2.30;1.67;;;;;;;22.35;81.38;98884.88;4912374;29;20024;-88
2022/06/24 02:49:34;;;;;;;2.95;1.90;;;;;;;22.35;81.69;98874.00;4922384;29;20031;-89
2022/06/24 02:52:00;;;;;;;3.72;2.35;;;;;;;22.29;80.93;98873.06;4913431;29;20087;-89
2022/06/24 02:54:25;;;;;;;2.92;2.03;;;;;;;22.22;81.63;98872.34;4911333;29;20752;-88
2022/06/24 02:56:50;;;;;;;2.50;1.98;;;;;;;22.21;82.17;98863.34;4914496;29;20120;-89
2022/06/24 02:59:16;;;;;;;2.53;2.00;;;;;;;22.07;81.92;98853.78;4913594;29;20083;-88
2022/06/24 03:01:41;;;;;;;3.90;2.17;;;;;;;21.95;81.21;98852.94;4920411;29;20027;-89
2022/06/24 03:04:06;;;;;;;3.78;2.20;;;;;;;22.06;81.98;98845.84;4922701;29;20090;-89
2022/06/24 03:06:32;;;;;;;3.22;1.92;;;;;;;22.10;82.19;98836.97;4913213;29;20050;-89
2022/06/24 03:08:57;;;;;;;2.20;2.00;;;;;;;22.09;82.88;98842.66;4915644;29;20126;-89
2022/06/24 03:11:22;;;;;;;3.13;2.10;;;;;;;22.10;82.73;98841.56;4906630;29;20486;-90
2022/06/24 03:13:48;;;;;;;4.60;2.40;;;;;;;22.16;82.51;98843.34;4915417;29;20047;-90
2022/06/24 03:16:13;;;;;;;2.40;2.20;;;;;;;22.22;82.40;98842.38;4912711;29;20080;-89
2022/06/24 03:18:38;;;;;;;3.40;2.40;;;;;;;22.24;82.53;98835.66;4906696;29;20146;-89
2022/06/24 03:21:06;;;;;;;3.67;2.40;;;;;;;22.22;82.35;98832.31;4912459;29;20190;-89
2022/06/24 03:23:32;;;;;;;2.95;2.50;;;;;;;22.27;82.59;98831.63;4911025;29;20028;-89
2022/06/24 03:25:57;;;;;;;3.63;2.80;;;;;;;22.26;82.11;98833.50;4913706;29;20034;-89
2022/06/24 03:28:22;;;;;;;5.43;2.80;;;;;;;22.22;81.92;98826.84;4906605;29;20062;-89
2022/06/24 03:30:48;;;;;;;2.92;2.50;;;;;;;22.21;82.55;98825.19;4914971;29;20040;-89
2022/06/24 03:33:13;;;;;;;3.08;2.50;;;;;;;22.22;82.00;98824.13;4913795;29;20028;-88
2022/06/24 03:35:38;;;;;;;2.70;2.50;;;;;;;22.23;82.13;98822.22;4911636;29;20030;-88
2022/06/24 03:38:04;;;;;;;3.97;3.00;;;;;;;22.24;82.03;98826.66;4915923;29;20038;-88
2022/06/24 03:40:29;;;;;;;3.58;2.85;;;;;;;22.20;81.78;98823.53;4913520;29;20122;-86
2022/06/24 03:42:55;;;;;;;4.78;3.15;;;;;;;22.18;82.17;98825.69;4913586;29;20091;-86
2022/06/24 03:45:20;;;;;;;5.45;2.90;;;;;;;22.19;82.10;98823.78;4913073;29;20036;-87
2022/06/24 03:47:45;;;;;;;4.30;3.25;;;;;;;22.16;82.47;98825.09;4917299;29;20032;-87
2022/06/24 03:50:11;;;;;;;4.35;3.38;;;;;;;22.16;82.81;98821.56;4911330;29;21030;-86
2022/06/24 03:52:36;;;;;;;7.57;3.88;;;;;;;22.17;82.18;98823.19;4903655;29;20659;-86
2022/06/24 03:55:02;;;;;;;4.32;3.17;;;;;;;22.21;81.89;98819.75;4903979;29;20031;-86
2022/06/24 03:57:28;;;;;;;5.63;3.40;;;;;;;22.22;82.14;98824.13;4912242;29;20039;-87
2022/06/24 03:59:53;;;;;;;4.07;3.47;;;;;;;22.24;81.18;98835.66;4911332;29;20505;-86
2022/06/24 04:02:18;;;;;;;3.88;3.40;;;;;;;22.21;81.98;98838.81;4901598;29;20438;-87
2022/06/24 04:04:44;;;;;;;3.90;3.50;;;;;;;22.20;81.60;98842.63;4911651;29;20028;-87
2022/06/24 04:07:09;;;;;;;5.78;4.05;;;;;;;22.17;82.23;98853.16;4902199;29;20038;-86
2022/06/24 04:09:34;;;;;;;4.53;3.55;;;;;;;22.18;81.67;98858.38;4908997;29;20036;-86
2022/06/24 04:12:00;;;;;;;4.15;3.67;;;;;;;22.20;82.46;98867.13;4918949;29;20028;-87
2022/06/24 04:17:09;;;;;;;5.15;3.83;;;;;;;22.17;82.52;98864.88;4925848;29;20043;-87
2022/06/24 04:19:35;;;;;;;5.55;4.20;;;;;;;22.20;82.47;98869.03;4901091;29;20032;-87
2022/06/24 04:22:01;;;;;;;5.00;4.50;;;;;;;22.19;82.60;98875.53;4910455;29;20044;-87
2022/06/24 04:24:26;;;;;;;5.30;4.05;;;;;;;22.14;83.00;98876.25;4918507;29;20090;-88
2022/06/24 04:26:52;;;;;;;4.43;4.03;;;;;;;22.16;82.39;98878.75;4908915;29;20020;-87
2022/06/24 04:29:17;;;;;;;6.35;4.00;;;;;;;22.18;82.04;98879.34;4910124;29;20072;-88
2022/06/24 04:31:42;;;;;;;5.30;4.10;;;;;;;22.16;82.81;98886.91;4910240;29;20060;-88
2022/06/24 04:34:08;;;;;;;4.88;3.72;;;;;;;22.14;82.76;98880.88;4908558;29;20036;-88
2022/06/24 04:36:33;;;;;;;5.35;4.57;;;;;;;22.10;82.65;98885.16;4908483;29;20032;-88
2022/06/24 04:38:59;;;;;;;7.20;3.95;;;;;;;22.20;83.29;98885.38;4911243;29;20046;-88
2022/06/24 04:41:24;;;;;;;5.03;3.88;;;;;;;22.15;82.22;98894.25;4901615;29;20032;-88
2022/06/24 04:43:50;;;;;;;4.90;3.78;;;;;;;22.14;82.70;98889.06;4918490;29;20034;-88
2022/06/24 04:46:15;;;;;;;5.55;3.83;;;;;;;22.11;83.04;98892.25;4907924;29;20031;-88
2022/06/24 04:48:41;;;;;;;3.95;3.53;;;;;;;22.14;82.53;98891.78;4908683;29;20046;-87
2022/06/24 04:51:10;;;;;;;3.97;3.60;;;;;;;22.12;82.22;98886.56;4904313;29;20513;-88
2022/06/24 04:53:36;;;;;;;5.80;3.90;;;;;;;22.15;81.71;98901.59;4910842;29;20035;-87
2022/06/24 04:56:01;;;;;;;5.65;3.90;;;;;;;22.10;81.92;98887.88;4917683;29;20047;-88
2022/06/24 04:58:26;;;;;;;5.10;4.05;;;;;;;22.08;81.81;98895.47;4901146;29;20478;-87
2022/06/24 05:00:52;;;;;;;4.45;4.00;;;;;;;22.10;82.19;98896.88;4921733;29;20044;-88
2022/06/24 05:03:17;;;;;;;6.15;4.20;;;;;;;22.12;81.40;98893.91;4907769;29;20074;-87
2022/06/24 05:05:42;;;;;;;4.45;4.00;;;;;;;22.09;82.14;98894.38;4907434;29;20059;-88
2022/06/24 05:08:08;;;;;;;5.20;3.80;;;;;;;22.14;81.83;98898.06;4906699;29;20406;-87
2022/06/24 05:10:33;;;;;;;5.93;4.32;;;;;;;22.12;81.43;98900.19;4913124;29;20036;-87
2022/06/24 05:12:58;;;;;;;4.82;3.47;;;;;;;22.24;80.58;98902.91;4909948;29;20028;-88
2022/06/24 05:15:24;;;;;;;4.80;4.20;;;;;;;22.22;80.39;98905.03;4925136;29;20031;-87
2022/06/24 05:17:49;;;;;;;5.82;3.80;;;;;;;22.15;79.71;98902.44;4909817;29;20123;-87
2022/06/24 05:20:15;;;;;;;5.53;3.67;;;;;;;22.17;80.25;98908.47;4899291;29;20055;-88
2022/06/24 05:22:40;;;;;;;4.82;3.30;;;;;;;22.32;80.07;98908.00;4900440;29;20068;-87
2022/06/24 05:25:09;;;;;;;4.72;3.65;;;;;;;22.33;79.53;98915.09;4910500;29;20032;-88
2022/06/24 05:27:34;;;;;;;4.13;3.25;;;;;;;22.34;79.77;98919.47;4899161;29;20040;-88
2022/06/24 05:30:00;;;;;;;3.80;2.60;;;;;;;22.21;79.50;98911.53;4906614;29;20361;-89
2022/06/24 05:32:25;;;;;;;4.10;2.50;;;;;;;22.11;79.78;98914.03;4901344;29;20055;-87
2022/06/24 05:34:51;;;;;;;4.85;3.35;;;;;;;22.16;78.92;98906.81;4901377;29;20035;-90
2022/06/24 05:37:16;;;;;;;6.25;3.35;;;;;;;22.15;79.44;98896.16;4911106;29;20110;-88
2022/06/24 05:39:41;;;;;;;5.75;2.97;;;;;;;22.11;80.36;98871.28;4901453;29;20574;-88
2022/06/24 05:42:07;;;;;;;3.80;2.95;;;;;;;22.12;81.18;98859.34;4912773;29;20038;-88
2022/06/24 05:44:32;;;;;;;3.80;2.70;;;;;;;22.10;80.35;98857.91;4913168;29;20106;-88
2022/06/24 05:46:57;;;;;;;6.28;3.35;;;;;;;22.12;79.85;98851.16;4895933;29;20032;-88
2022/06/24 05:51:58;;;;;;;3.92;2.90;;;;;;;21.95;79.76;98864.66;5128467;23;20054;-89
2022/06/24 05:57:07;;;;;;;5.15;3.10;;;;;;;22.03;79.38;98898.03;4921994;29;20126;-90
2022/06/24 05:59:37;;;;;;;4.28;2.80;;;;;;;21.89;80.09;98902.91;4911555;29;20027;-89
2022/06/24 06:02:04;;;;;;;4.20;2.92;;;;;;;21.88;80.42;98903.97;4910743;29;20027;-89
2022/06/24 06:04:29;;;;;;;2.80;2.33;;;;;;;21.77;79.32;98905.63;4911542;29;20474;-89
2022/06/24 06:06:55;;;;;;;2.83;2.10;;;;;;;21.69;80.21;98898.63;4902444;29;20171;-88
2022/06/24 06:09:20;;;;;;;4.53;2.28;;;;;;;21.87;79.89;98905.88;4901824;29;20164;-88
2022/06/24 06:11:45;;;;;;;2.35;2.08;;;;;;;21.85;79.78;98905.28;4902272;29;20504;-88
2022/06/24 06:14:11;;;;;;;1.83;1.70;;;;;;;21.72;79.63;98894.59;4910375;29;20031;-89
2022/06/24 06:16:36;;;;;;;2.80;1.80;;;;;;;21.73;80.44;98890.81;4909288;29;20046;-88
2022/06/24 06:19:01;;;;;;;2.03;1.73;;;;;;;21.59;81.18;98903.81;4924804;29;20031;-88
2022/06/24 06:21:27;;;;;;;2.78;2.10;;;;;;;21.62;81.07;98910.69;4901947;29;20055;-89
2022/06/24 06:23:52;;;;;;;2.05;1.92;;;;;;;21.68;80.40;98916.00;4914189;29;20099;-88
2022/06/24 06:26:17;;;;;;;2.15;1.95;;;;;;;21.61;80.88;98907.13;4899102;29;20032;-88
2022/06/24 06:28:43;;;;;;;2.40;1.73;;;;;;;21.63;81.25;98907.72;4900071;29;20032;-88
2022/06/24 06:31:09;;;;;;;2.78;1.77;;;;;;;21.56;80.88;98908.91;4900724;29;20074;-88
2022/06/24 06:33:35;;;;;;;2.70;1.80;;;;;;;21.60;81.35;98908.19;4900868;29;20044;-89
2022/06/24 06:36:06;;;;;;;2.05;1.85;;;;;;;21.60;81.72;98915.53;4900613;29;20039;-89
2022/06/24 06:38:32;;;;;;;2.17;1.77;;;;;;;21.65;81.70;98911.03;4899592;29;20059;-89
2022/06/24 06:40:57;;;;;;;2.10;1.90;;;;;;;21.65;81.36;98918.38;4913547;29;20115;-88
2022/06/24 06:43:23;;;;;;;2.88;2.20;;;;;;;21.60;81.01;98921.81;4900149;29;20038;-88
2022/06/24 06:45:48;;;;;;;2.58;1.95;;;;;;;21.72;81.35;98920.97;4915050;29;20024;-86
2022/06/24 06:48:13;;;;;;;2.00;1.90;;;;;;;21.66;81.87;98929.03;4899805;29;20036;-87
2022/06/24 06:50:39;;;;;;;2.30;1.92;;;;;;;21.62;82.00;98927.84;4898105;29;20106;-86
2022/06/24 06:53:04;;;;;;;2.05;1.92;;;;;;;21.73;81.91;98928.09;4915666;29;20150;-87
2022/06/24 06:55:29;;;;;;;2.40;2.20;;;;;;;21.68;81.97;98929.63;4915651;29;20490;-87
2022/06/24 06:57:55;;;;;;;2.55;2.35;;;;;;;21.70;82.40;98923.94;4915842;29;20074;-87
2022/06/24 07:00:21;;;;;;;3.83;2.15;;;;;;;21.69;82.49;98916.84;4899871;29;20744;-87
2022/06/24 07:02:46;;;;;;;2.50;2.30;;;;;;;21.64;82.45;98919.44;4899409;29;20027;-87
2022/06/24 07:05:11;;;;;;;4.05;2.53;;;;;;;21.67;82.83;98922.53;4899926;29;20051;-86
2022/06/24 07:07:37;;;;;;;2.72;2.35;;;;;;;21.74;83.07;98918.84;4899925;29;20501;-87
2022/06/24 07:10:02;;;;;;;2.50;2.22;;;;;;;21.79;82.39;98916.28;4915696;29;20050;-88
2022/06/24 07:12:28;;;;;;;3.80;2.75;;;;;;;21.71;82.40;98913.88;4898683;29;20055;-87
2022/06/24 07:14:53;;;;;;;2.90;2.60;;;;;;;21.68;83.36;98912.47;4914429;29;20070;-86
2022/06/24 07:17:18;;;;;;;3.85;2.70;;;;;;;21.74;83.23;98916.13;4899708;29;20027;-86
2022/06/24 07:19:45;;;;;;;3.25;2.60;;;;;;;21.71;83.28;98920.16;4915863;29;20047;-87
2022/06/24 07:22:11;;;;;;;5.32;2.70;;;;;;;21.79;82.93;98919.00;4897119;29;20038;-86
2022/06/24 07:24:36;;;;;;;3.33;3.03;;;;;;;21.77;83.18;98915.69;4903109;29;20031;-87
2022/06/24 07:27:06;;;;;;;3.78;2.53;;;;;;;21.76;83.66;98914.00;4900643;29;20036;-87
2022/06/24 07:29:35;;;;;;;4.35;2.65;;;;;;;21.76;84.11;98922.16;4929208;29;20237;-87
2022/06/24 07:32:02;;;;;;;3.15;2.63;;;;;;;21.73;83.34;98919.91;4896022;29;20401;-87
2022/06/24 07:34:30;;;;;;;2.75;2.47;;;;;;;21.77;83.53;98921.97;4896383;29;20055;-87
2022/06/24 07:36:56;;;;;;;3.00;2.65;;;;;;;21.81;83.16;98908.72;4896903;29;20343;-86
2022/06/24 07:39:21;;;;;;;2.90;2.70;;;;;;;21.84;82.57;98905.50;4896296;29;20067;-87
2022/06/24 07:41:46;;;;;;;4.22;3.08;;;;;;;21.88;82.53;98906.69;4896449;29;20055;-87
2022/06/24 07:44:12;;;;;;;3.45;3.00;;;;;;;21.90;82.13;98907.28;4912316;29;20055;-86
2022/06/24 07:46:37;;;;;;;3.40;3.10;;;;;;;21.86;82.81;98911.53;4896119;29;20102;-87
2022/06/24 07:49:02;;;;;;;3.78;3.47;;;;;;;21.81;82.68;98906.81;4912306;29;20114;-87
2022/06/24 07:51:28;;;;;;;6.43;3.45;;;;;;;21.84;82.47;98911.78;4896440;29;20055;-87
2022/06/24 07:53:53;;;;;;;5.85;3.85;;;;;;;21.81;82.86;98914.16;4910222;29;20490;-87
2022/06/24 07:59:03;;;;;;;4.47;3.22;;;;;;;21.81;82.15;98904.09;4914401;29;20102;-87
2022/06/24 08:01:28;;;;;;;3.67;3.30;;;;;;;21.83;81.85;98914.75;4896189;29;20662;-87
2022/06/24 08:03:54;;;;;;;6.03;3.80;;;;;;;21.91;81.78;98906.22;4911862;29;20446;-87
2022/06/24 08:06:19;;;;;;;4.40;4.00;;;;;;;21.89;80.71;98911.91;4896240;29;20530;-86
2022/06/24 08:08:44;;;;;;;5.97;4.15;;;;;;;21.88;81.04;98921.13;4895752;29;20098;-87
2022/06/24 08:11:10;;;;;;;5.15;3.80;;;;;;;21.88;80.82;98915.69;4892754;29;20553;-86
2022/06/24 08:13:35;;;;;;;5.57;4.45;;;;;;;21.91;80.96;98915.22;4895071;29;20490;-86
2022/06/24 08:16:00;;;;;;;5.28;3.20;;;;;;;21.98;81.33;98913.19;4893857;29;20051;-87
2022/06/24 08:18:26;;;;;;;5.30;4.30;;;;;;;21.99;81.43;98914.84;4894362;29;20082;-87
2022/06/24 08:20:52;;;;;;;6.80;4.82;;;;;;;21.95;81.65;98901.94;4911662;29;20035;-86
2022/06/24 08:23:17;;;;;;;4.90;4.50;;;;;;;21.96;81.48;98900.88;4895570;29;20028;-86
2022/06/24 08:25:43;;;;;;;5.40;5.00;;;;;;;21.94;81.45;98903.03;4894788;29;20027;-87
2022/06/24 08:28:08;;;;;;;4.63;4.20;;;;;;;21.97;81.14;98899.81;4894377;29;20147;-86
2022/06/24 08:30:34;;;;;;;5.55;4.00;;;;;;;22.02;82.09;98905.38;4910924;29;20039;-86
2022/06/24 08:33:00;;;;;;;4.35;4.05;;;;;;;22.09;80.85;98899.84;4893792;29;20119;-86
2022/06/24 08:35:25;;;;;;;4.72;4.25;;;;;;;22.02;80.59;98905.38;4895592;29;20058;-86
2022/06/24 08:37:51;;;;;;;4.50;4.10;;;;;;;21.99;79.57;98903.97;4894403;29;20296;-86
2022/06/24 08:40:18;;;;;;;4.57;4.18;;;;;;;22.01;80.64;98903.72;4911521;29;20036;-86
2022/06/24 08:42:44;;;;;;;4.25;3.20;;;;;;;22.09;80.36;98905.28;4894569;29;20027;-86
2022/06/24 08:45:11;;;;;;;3.97;3.33;;;;;;;22.10;79.56;98905.03;4895708;29;20402;-87
2022/06/24 08:47:38;;;;;;;4.37;3.30;;;;;;;22.10;79.36;98905.03;4909173;29;20122;-87
2022/06/24 08:50:04;;;;;;;2.85;2.50;;;;;;;22.22;79.01;98899.56;4911264;29;20051;-87
2022/06/24 08:52:29;;;;;;;3.70;2.90;;;;;;;22.20;79.08;98902.53;4894808;29;20035;-87
2022/06/24 08:54:55;;;;;;;3.70;2.88;;;;;;;22.22;78.79;98891.41;4911361;29;20403;-87
2022/06/24 08:57:21;;;;;;;3.53;2.90;;;;;;;22.16;78.45;98898.63;4894620;29;20505;-85
2022/06/24 08:59:46;;;;;;;3.80;2.60;;;;;;;22.20;79.53;98890.81;4895317;29;20027;-87
2022/06/24 09:02:15;;;;;;;3.58;2.88;;;;;;;22.25;79.00;98894.50;4894173;29;20285;-87
2022/06/24 09:04:46;;;;;;;2.80;2.60;;;;;;;22.22;79.50;98902.31;4907440;29;20024;-86
2022/06/24 09:07:28;;;;;;;3.00;2.65;;;;;;;22.26;79.13;98898.06;4899893;29;20027;-87
2022/06/24 09:10:01;;;;;;;2.78;2.58;;;;;;;22.18;78.83;98901.13;4897371;29;20388;-87
2022/06/24 09:12:46;;;;;;;2.80;2.60;;;;;;;22.17;79.12;98889.41;4900628;29;20028;-87
2022/06/24 09:15:13;;;;;;;2.50;2.30;;;;;;;22.22;78.36;98886.78;4916131;29;20091;-86
2022/06/24 09:17:39;;;;;;;3.15;2.70;;;;;;;22.26;78.57;98885.25;4901318;29;20050;-86
2022/06/24 09:20:15;;;;;;;3.08;2.55;;;;;;;22.19;78.08;98881.81;4900568;29;20024;-87
2022/06/24 09:22:41;;;;;;;2.97;2.70;;;;;;;22.19;77.53;98881.00;4916862;29;20020;-87
2022/06/24 09:25:07;;;;;;;3.60;2.58;;;;;;;22.19;78.10;98879.09;4901114;29;20126;-86
2022/06/24 09:27:33;;;;;;;2.60;2.40;;;;;;;22.25;77.63;98877.34;4900518;29;20118;-86
2022/06/24 09:29:59;;;;;;;4.55;2.70;;;;;;;22.25;78.01;98883.63;4901503;29;20070;-86
2022/06/24 09:32:28;;;;;;;2.92;2.70;;;;;;;22.24;78.39;98873.78;4914656;29;20030;-87
2022/06/24 09:35:02;;;;;;;4.00;2.83;;;;;;;22.30;77.50;98869.28;4900562;29;20027;-86
2022/06/24 09:37:38;;;;;;;3.08;2.53;;;;;;;22.34;77.76;98875.88;4916553;29;20038;-86
2022/06/24 09:40:26;;;;;;;5.40;2.88;;;;;;;22.30;76.95;98878.25;4898246;29;20023;-86
2022/06/24 09:42:52;;;;;;;;;;;;;;;22.36;76.95;98879.19;4916093;29;20027;-87
2022/06/24 09:45:18;;;;;;;4.28;2.50;;;;;;;22.39;76.57;98870.53;4916925;29;20692;-86
2022/06/24 09:47:47;;;;;;;2.33;2.13;;;;;;;22.35;76.45;98877.53;4900652;29;20063;-86
2022/06/24 09:50:12;;;;;;;3.58;2.90;;;;;;;22.37;75.97;98889.03;4900518;29;20029;-86
2022/06/24 09:52:39;;;;;;;3.67;2.33;;;;;;;22.40;75.52;98885.00;4899425;29;20433;-86
2022/06/24 09:55:05;;;;;;;2.95;2.40;;;;;;;22.36;75.95;98890.09;4900083;29;20059;-86
2022/06/24 09:57:31;;;;;;;3.33;2.55;;;;;;;22.44;75.27;98897.91;4900435;29;20524;-87
2022/06/24 10:02:42;;;;;;;2.28;1.90;;;;;;;22.56;74.45;98898.69;4918042;29;20078;-87
2022/06/24 10:05:09;;;;;;;3.50;1.80;;;;;;;22.53;74.40;98906.50;4900329;29;20450;-87
2022/06/24 10:07:35;;;;;;;4.13;1.88;;;;;;;22.58;73.51;98906.63;4915144;29;20474;-86
2022/06/24 10:10:03;;;;;;;3.20;1.73;;;;;;;22.58;72.56;98914.78;4900691;29;20032;-87
2022/06/24 10:12:34;;;;;;;1.60;1.50;;;;;;;22.53;72.83;98920.97;4914698;29;20044;-86
2022/06/24 10:15:00;;;;;;;2.35;1.75;;;;;;;22.53;72.66;98926.44;4915138;29;20063;-86
2022/06/24 10:17:26;;;;;;;2.10;1.90;;;;;;;22.56;73.34;98933.28;4900097;29;20115;-87
2022/06/24 10:19:52;;;;;;;3.17;2.10;;;;;;;22.58;73.29;98929.25;4900416;29;20495;-87
2022/06/24 10:22:36;;;;;;;2.50;2.30;;;;;;;22.57;73.77;98937.66;4899966;29;20103;-87
2022/06/24 10:25:02;;;;;;;3.30;2.65;;;;;;;22.55;73.09;98932.47;4899957;29;20051;-87
2022/06/24 10:27:58;;;;;;;2.55;2.30;;;;;;;22.55;73.71;98935.19;4899905;29;20028;-86
2022/06/24 10:30:38;;;;;;;2.60;2.40;;;;;;;22.49;73.30;98927.16;4914883;29;20054;-86
2022/06/24 10:33:30;;;;;;;2.65;2.45;;;;;;;22.48;73.33;98930.94;4916057;29;20071;-87
2022/06/24 10:36:06;;;;;;;2.90;2.30;;;;;;;22.51;73.58;98935.91;4898262;29;20399;-86
2022/06/24 10:38:42;;;;;;;2.95;2.22;;;;;;;22.55;74.18;98935.19;4900192;29;20098;-87
2022/06/24 10:41:10;;;;;;;2.08;1.85;;;;;;;22.54;73.62;98933.53;4899094;29;20039;-87
2022/06/24 10:43:40;;;;;;;3.30;2.25;;;;;;;22.56;73.82;98928.66;4898604;29;20386;-87
2022/06/24 10:46:16;;;;;;;2.00;1.70;;;;;;;22.58;74.21;98929.25;4929544;29;20027;-87
2022/06/24 10:48:44;;;;;;;2.28;1.80;;;;;;;22.58;74.34;98928.44;4899696;29;20036;-87
2022/06/24 10:51:14;;;;;;;2.40;1.80;;;;;;;22.52;72.10;98934.84;4914928;29;20066;-86
2022/06/24 10:54:01;;;;;;;3.05;1.45;;;;;;;22.57;72.92;98926.75;4899037;29;20371;-87
2022/06/24 10:56:38;;;;;;;2.10;1.63;;;;;;;22.59;72.89;98920.00;4933551;29;20122;-86
2022/06/24 10:59:04;;;;;;;2.75;1.50;;;;;;;22.62;72.30;98915.97;4918769;29;20978;-86
2022/06/24 11:01:30;;;;;;;2.00;1.65;;;;;;;22.66;73.25;98919.03;4918862;29;20110;-88
2022/06/24 11:03:56;;;;;;;2.60;1.58;;;;;;;22.74;73.16;98918.69;4902573;29;20059;-86
2022/06/24 11:06:21;;;;;;;3.08;1.70;;;;;;;22.72;72.05;98916.19;4903852;29;20070;-86
2022/06/24 11:08:46;;;;;;;1.90;1.45;;;;;;;22.75;72.12;98917.63;4903627;29;20067;-87
2022/06/24 11:11:24;;;;;;;2.25;1.70;;;;;;;22.76;72.49;98917.38;4903355;29;20058;-87
2022/06/24 11:13:50;;;;;;;2.45;1.77;;;;;;;22.76;71.91;98916.53;4905456;29;20036;-87
2022/06/24 11:16:16;;;;;;;2.75;1.65;;;;;;;22.73;71.79;98914.31;4904012;29;20032;-87
2022/06/24 11:18:42;;;;;;;2.50;1.90;;;;;;;22.71;72.05;98917.28;4903220;29;20034;-87
2022/06/24 11:21:09;;;;;;;2.45;1.80;;;;;;;22.77;72.02;98915.47;4919257;29;20031;-87
2022/06/24 11:23:38;;;;;;;4.00;1.90;;;;;;;22.78;71.95;98911.66;4898459;29;20150;-87
2022/06/24 11:26:17;;;;;;;4.20;2.20;;;;;;;22.78;72.08;98901.59;4903092;29;20027;-87
2022/06/24 11:28:43;;;;;;;;;;;;;;;22.78;71.43;98893.41;4903476;29;20031;-86
2022/06/24 11:31:21;;;;;;;3.97;2.30;;;;;;;22.79;71.90;98894.25;4919063;29;19934;-86
2022/06/24 11:34:11;;;;;;;4.20;2.03;;;;;;;22.84;72.01;98895.19;4917906;29;20874;-87
2022/06/24 11:36:37;;;;;;;4.22;1.85;;;;;;;22.86;71.90;98898.50;4908938;29;20040;-87
2022/06/24 11:39:05;;;;;;;3.22;2.00;;;;;;;22.96;71.86;98897.03;4903245;29;20083;-87
2022/06/24 11:41:31;;;;;;;3.00;2.00;;;;;;;22.95;71.14;98901.66;4902488;29;20055;-87
2022/06/24 11:43:57;;;;;;;2.10;1.98;;;;;;;22.99;71.14;98902.00;4918434;29;20095;-86
2022/06/24 11:46:22;;;;;;;2.65;1.90;;;;;;;22.98;70.79;98900.34;4902401;29;20028;-87
2022/06/24 11:48:47;;;;;;;2.30;2.10;;;;;;;22.98;70.81;98903.91;4902142;29;20035;-86
2022/06/24 11:51:20;;;;;;;1.95;1.83;;;;;;;22.98;71.30;98894.91;4902995;29;20134;-86
2022/06/24 11:54:03;;;;;;;2.08;1.70;;;;;;;23.07;70.91;98893.44;4903316;29;20019;-87